VKG103 LCLK-EKCH
Flight info
| Callsign | VKG103 |
|---|---|
| Flight time | N/A |
| Altitude | 34000 |
| Route | PHA M31 GENOS DCT PEDER DCT TOMBI UA16 AYT UQ26 TUDBU DCT ETUBA DCT VAMON DCT ULMIN DCT BADOR DCT KEKED/N0453F360 DCT LENOV/N0451F320 DCT ORTEB/N0454F360 DCT RODAK DCT ABAKU DCT ATKUN DCT ASGUL DCT LUXAL DCT AMROR DCT ROE M743 TIDVU |
| Aircraft | A321/M-SDE3FGHIRWY/LB1 |
Departure
| Time | 2026-04-27 11:30 |
|---|---|
| Airport | Larnaca International Airport (LCLK) |
Arrival
| Time | N/A |
|---|---|
| Airport | Copenhagen Kastrup Airport (EKCH) |
| Time | Latitude | Longitude | Altitude | Speed | Heading |
|---|---|---|---|---|---|
| 2026-04-27 11:16 | 34.86875 | 33.60953 | 21 ft | 0 kts | 46° |
| 2026-04-27 11:21 | 34.86866 | 33.60942 | 21 ft | 2 kts | 46° |
| 2026-04-27 11:21 | 34.86855 | 33.60927 | 22 ft | 2 kts | 46° |
| 2026-04-27 11:21 | 34.86843 | 33.60913 | 21 ft | 2 kts | 46° |
| 2026-04-27 11:22 | 34.86832 | 33.60898 | 24 ft | 2 kts | 46° |
| 2026-04-27 11:22 | 34.86820 | 33.60884 | 23 ft | 2 kts | 58° |
| 2026-04-27 11:22 | 34.86816 | 33.60865 | 24 ft | 2 kts | 121° |
| 2026-04-27 11:22 | 34.86823 | 33.60852 | 20 ft | 1 kts | 134° |
| 2026-04-27 11:23 | 34.86824 | 33.60851 | 20 ft | 0 kts | 135° |
| 2026-04-27 11:24 | 34.86821 | 33.60854 | 22 ft | 3 kts | 135° |
| 2026-04-27 11:24 | 34.86735 | 33.60959 | 20 ft | 26 kts | 135° |
| 2026-04-27 11:24 | 34.86634 | 33.61090 | 21 ft | 11 kts | 115° |
| 2026-04-27 11:25 | 34.86651 | 33.61148 | 22 ft | 11 kts | 46° |
| 2026-04-27 11:25 | 34.86755 | 33.61276 | 20 ft | 36 kts | 45° |
| 2026-04-27 11:25 | 34.86941 | 33.61504 | 20 ft | 38 kts | 45° |
| 2026-04-27 11:25 | 34.87122 | 33.61725 | 22 ft | 36 kts | 45° |
| 2026-04-27 11:26 | 34.87296 | 33.61937 | 22 ft | 34 kts | 45° |
| 2026-04-27 11:26 | 34.87460 | 33.62140 | 20 ft | 33 kts | 45° |
| 2026-04-27 11:26 | 34.87619 | 33.62333 | 21 ft | 31 kts | 45° |
| 2026-04-27 11:26 | 34.87769 | 33.62517 | 20 ft | 30 kts | 45° |
| 2026-04-27 11:27 | 34.87912 | 33.62690 | 20 ft | 28 kts | 45° |
| 2026-04-27 11:27 | 34.88045 | 33.62853 | 22 ft | 27 kts | 44° |
| 2026-04-27 11:27 | 34.88173 | 33.63009 | 22 ft | 25 kts | 45° |
| 2026-04-27 11:27 | 34.88293 | 33.63158 | 20 ft | 24 kts | 45° |
| 2026-04-27 11:28 | 34.88405 | 33.63293 | 20 ft | 17 kts | 45° |
| 2026-04-27 11:28 | 34.88444 | 33.63378 | 20 ft | 10 kts | 105° |
| 2026-04-27 11:28 | 34.88403 | 33.63432 | 21 ft | 8 kts | 137° |
| 2026-04-27 11:28 | 34.88400 | 33.63436 | 20 ft | 0 kts | 137° |
| 2026-04-27 11:29 | 34.88384 | 33.63454 | 20 ft | 14 kts | 136° |
| 2026-04-27 11:29 | 34.88314 | 33.63521 | 20 ft | 8 kts | 170° |
| 2026-04-27 11:29 | 34.88265 | 33.63483 | 21 ft | 11 kts | 225° |
| 2026-04-27 11:30 | 34.88106 | 33.63290 | 21 ft | 68 kts | 225° |
| 2026-04-27 11:30 | 34.87587 | 33.62655 | 21 ft | 140 kts | 225° |
| 2026-04-27 11:30 | 34.86775 | 33.61667 | 166 ft | 182 kts | 224° |
| 2026-04-27 11:30 | 34.85849 | 33.60504 | 733 ft | 201 kts | 225° |
| 2026-04-27 11:31 | 34.84827 | 33.59184 | 1317 ft | 227 kts | 226° |
| 2026-04-27 11:31 | 34.83692 | 33.57700 | 1990 ft | 250 kts | 227° |
| 2026-04-27 11:31 | 34.82476 | 33.56113 | 2891 ft | 261 kts | 227° |
| 2026-04-27 11:31 | 34.81218 | 33.54484 | 3618 ft | 268 kts | 226° |
| 2026-04-27 11:32 | 34.79922 | 33.52810 | 4254 ft | 274 kts | 226° |
| 2026-04-27 11:32 | 34.78600 | 33.51108 | 4899 ft | 279 kts | 226° |
| 2026-04-27 11:32 | 34.77388 | 33.49257 | 5547 ft | 283 kts | 242° |
| 2026-04-27 11:32 | 34.76812 | 33.46965 | 6183 ft | 286 kts | 265° |
| 2026-04-27 11:33 | 34.76661 | 33.44536 | 6820 ft | 289 kts | 267° |
| 2026-04-27 11:33 | 34.76529 | 33.42084 | 7474 ft | 293 kts | 268° |
| 2026-04-27 11:33 | 34.76399 | 33.39594 | 8132 ft | 297 kts | 268° |
| 2026-04-27 11:33 | 34.76269 | 33.37080 | 8782 ft | 300 kts | 268° |
| 2026-04-27 11:34 | 34.76135 | 33.34529 | 9427 ft | 304 kts | 268° |
| 2026-04-27 11:34 | 34.75998 | 33.31953 | 10048 ft | 307 kts | 268° |
| 2026-04-27 11:34 | 34.75852 | 33.29293 | 10294 ft | 325 kts | 267° |
| 2026-04-27 11:34 | 34.75697 | 33.26461 | 10422 ft | 346 kts | 267° |
| 2026-04-27 11:35 | 34.75530 | 33.23457 | 10549 ft | 365 kts | 267° |
| 2026-04-27 11:35 | 34.75349 | 33.20298 | 10663 ft | 384 kts | 267° |
| 2026-04-27 11:35 | 34.75156 | 33.17010 | 10967 ft | 394 kts | 266° |
| 2026-04-27 11:35 | 34.75164 | 33.13669 | 11489 ft | 396 kts | 279° |
| 2026-04-27 11:36 | 34.75186 | 33.13484 | 11520 ft | 396 kts | 280° |
| 2026-04-27 11:36 | 34.75677 | 33.10356 | 12069 ft | 397 kts | 283° |
| 2026-04-27 11:36 | 34.76282 | 33.07106 | 12606 ft | 400 kts | 284° |
| 2026-04-27 11:36 | 34.76954 | 33.03812 | 13171 ft | 403 kts | 285° |
| 2026-04-27 11:37 | 34.77655 | 33.00497 | 13708 ft | 406 kts | 284° |
| 2026-04-27 11:37 | 34.78357 | 32.97158 | 14220 ft | 407 kts | 284° |
| 2026-04-27 11:37 | 34.79044 | 32.93806 | 14693 ft | 409 kts | 284° |
| 2026-04-27 11:37 | 34.79720 | 32.90431 | 15185 ft | 411 kts | 284° |
| 2026-04-27 11:38 | 34.80383 | 32.87040 | 15663 ft | 413 kts | 284° |
| 2026-04-27 11:38 | 34.81041 | 32.83633 | 16136 ft | 415 kts | 284° |
| 2026-04-27 11:38 | 34.81702 | 32.80204 | 16608 ft | 417 kts | 284° |
| 2026-04-27 11:38 | 34.82370 | 32.76761 | 17064 ft | 419 kts | 284° |
| 2026-04-27 11:39 | 34.83041 | 32.73299 | 17526 ft | 421 kts | 284° |
| 2026-04-27 11:39 | 34.83713 | 32.69823 | 17997 ft | 423 kts | 284° |
| 2026-04-27 11:39 | 34.84390 | 32.66327 | 18428 ft | 425 kts | 284° |
| 2026-04-27 11:39 | 34.85071 | 32.62820 | 18812 ft | 427 kts | 285° |
| 2026-04-27 11:40 | 34.85756 | 32.59297 | 19202 ft | 429 kts | 285° |
| 2026-04-27 11:40 | 34.86442 | 32.55759 | 19578 ft | 431 kts | 285° |
| 2026-04-27 11:40 | 34.87150 | 32.52208 | 19961 ft | 432 kts | 288° |
| 2026-04-27 11:40 | 34.88350 | 32.48870 | 20314 ft | 431 kts | 303° |
| 2026-04-27 11:41 | 34.90193 | 32.45992 | 20669 ft | 432 kts | 312° |
| 2026-04-27 11:41 | 34.92164 | 32.43227 | 21042 ft | 434 kts | 312° |
| 2026-04-27 11:41 | 34.94149 | 32.40452 | 21417 ft | 435 kts | 312° |
| 2026-04-27 11:41 | 34.96143 | 32.37662 | 21761 ft | 438 kts | 312° |
| 2026-04-27 11:42 | 34.98146 | 32.34852 | 22113 ft | 440 kts | 312° |
| 2026-04-27 11:42 | 35.00154 | 32.32028 | 22464 ft | 442 kts | 312° |
| 2026-04-27 11:42 | 35.02172 | 32.29186 | 22823 ft | 444 kts | 312° |
| 2026-04-27 11:42 | 35.04198 | 32.26331 | 23174 ft | 446 kts | 312° |
| 2026-04-27 11:43 | 35.06235 | 32.23454 | 23512 ft | 448 kts | 312° |
| 2026-04-27 11:43 | 35.08270 | 32.20572 | 23806 ft | 450 kts | 312° |
| 2026-04-27 11:43 | 35.10321 | 32.17671 | 24095 ft | 451 kts | 312° |
| 2026-04-27 11:43 | 35.12373 | 32.14769 | 24393 ft | 452 kts | 312° |
| 2026-04-27 11:44 | 35.14432 | 32.11855 | 24699 ft | 453 kts | 312° |
| 2026-04-27 11:44 | 35.16495 | 32.08932 | 25002 ft | 454 kts | 312° |
| 2026-04-27 11:44 | 35.18560 | 32.06005 | 25308 ft | 455 kts | 312° |
| 2026-04-27 11:44 | 35.20627 | 32.03069 | 25619 ft | 456 kts | 311° |
| 2026-04-27 11:45 | 35.22697 | 32.00125 | 25904 ft | 457 kts | 311° |
| 2026-04-27 11:45 | 35.24066 | 31.98176 | 26138 ft | 456 kts | 311° |
| 2026-04-27 11:45 | 35.26827 | 31.94243 | 26706 ft | 453 kts | 311° |
| 2026-04-27 11:45 | 35.28841 | 31.91369 | 27120 ft | 450 kts | 311° |
| 2026-04-27 11:46 | 35.30874 | 31.88468 | 27548 ft | 448 kts | 311° |
| 2026-04-27 11:46 | 35.32897 | 31.85583 | 27946 ft | 445 kts | 311° |
| 2026-04-27 11:46 | 35.34912 | 31.82712 | 28341 ft | 443 kts | 311° |
| 2026-04-27 11:46 | 35.36916 | 31.79853 | 28735 ft | 441 kts | 311° |
| 2026-04-27 11:47 | 35.38909 | 31.77004 | 29140 ft | 439 kts | 311° |
| 2026-04-27 11:47 | 35.40893 | 31.74164 | 29536 ft | 437 kts | 311° |
| 2026-04-27 11:47 | 35.42859 | 31.71341 | 29902 ft | 435 kts | 311° |
| 2026-04-27 11:47 | 35.44821 | 31.68517 | 30237 ft | 434 kts | 311° |
| 2026-04-27 11:48 | 35.46772 | 31.65708 | 30528 ft | 433 kts | 311° |
| 2026-04-27 11:48 | 35.48725 | 31.62900 | 30816 ft | 432 kts | 311° |
| 2026-04-27 11:48 | 35.50677 | 31.60095 | 31092 ft | 431 kts | 311° |
| 2026-04-27 11:48 | 35.52620 | 31.57303 | 31372 ft | 430 kts | 311° |
| 2026-04-27 11:49 | 35.53910 | 31.55449 | 31566 ft | 430 kts | 311° |
| 2026-04-27 11:49 | 35.55850 | 31.52660 | 31841 ft | 429 kts | 311° |
| 2026-04-27 11:49 | 35.57785 | 31.49873 | 32119 ft | 428 kts | 311° |
| 2026-04-27 11:49 | 35.59717 | 31.47088 | 32395 ft | 428 kts | 310° |
| 2026-04-27 11:50 | 35.61645 | 31.44306 | 32677 ft | 427 kts | 310° |
| 2026-04-27 11:50 | 35.63567 | 31.41526 | 32960 ft | 426 kts | 310° |
| 2026-04-27 11:50 | 35.65490 | 31.38740 | 33219 ft | 426 kts | 310° |
| 2026-04-27 11:50 | 35.67403 | 31.35969 | 33498 ft | 425 kts | 310° |
| 2026-04-27 11:51 | 35.69313 | 31.33203 | 33762 ft | 425 kts | 310° |
| 2026-04-27 11:51 | 35.71223 | 31.30433 | 34026 ft | 424 kts | 310° |
| 2026-04-27 11:51 | 35.75034 | 31.24896 | 34436 ft | 423 kts | 310° |
| 2026-04-27 11:52 | 35.76935 | 31.22132 | 34621 ft | 424 kts | 310° |
| 2026-04-27 11:52 | 35.78836 | 31.19365 | 34803 ft | 424 kts | 310° |
| 2026-04-27 11:52 | 35.80740 | 31.16593 | 34985 ft | 424 kts | 310° |
| 2026-04-27 11:52 | 35.82646 | 31.13814 | 35165 ft | 424 kts | 310° |
| 2026-04-27 11:53 | 35.84548 | 31.11044 | 35349 ft | 424 kts | 310° |
| 2026-04-27 11:53 | 35.86454 | 31.08269 | 35520 ft | 424 kts | 310° |
| 2026-04-27 11:53 | 35.88360 | 31.05488 | 35697 ft | 424 kts | 309° |
| 2026-04-27 11:53 | 35.90259 | 31.02711 | 35877 ft | 424 kts | 309° |
| 2026-04-27 11:54 | 35.92158 | 30.99929 | 35958 ft | 425 kts | 309° |
| 2026-04-27 11:54 | 35.95971 | 30.94343 | 35979 ft | 425 kts | 309° |
| 2026-04-27 11:55 | 35.99784 | 30.88755 | 35982 ft | 426 kts | 311° |
| 2026-04-27 11:55 | 36.01936 | 30.86244 | 35984 ft | 427 kts | 322° |
| 2026-04-27 11:55 | 36.04414 | 30.84298 | 35990 ft | 429 kts | 332° |
| 2026-04-27 11:55 | 36.07197 | 30.82954 | 35982 ft | 432 kts | 343° |
| 2026-04-27 11:56 | 36.10159 | 30.82281 | 35989 ft | 436 kts | 353° |
| 2026-04-27 11:56 | 36.16240 | 30.82037 | 35993 ft | 438 kts | 355° |
| 2026-04-27 11:57 | 36.22338 | 30.81834 | 36001 ft | 438 kts | 355° |
| 2026-04-27 11:57 | 36.28440 | 30.81630 | 36002 ft | 439 kts | 355° |
| 2026-04-27 11:58 | 36.34546 | 30.81428 | 36007 ft | 439 kts | 355° |
| 2026-04-27 11:58 | 36.40655 | 30.81228 | 36005 ft | 439 kts | 355° |
| 2026-04-27 11:59 | 36.46762 | 30.81022 | 36009 ft | 439 kts | 355° |
| 2026-04-27 11:59 | 36.52880 | 30.80806 | 36003 ft | 439 kts | 355° |
| 2026-04-27 12:00 | 36.58995 | 30.80592 | 36006 ft | 439 kts | 355° |
| 2026-04-27 12:00 | 36.65108 | 30.80381 | 36012 ft | 439 kts | 355° |
| 2026-04-27 12:01 | 36.71229 | 30.80170 | 35992 ft | 439 kts | 355° |
| 2026-04-27 12:01 | 36.77307 | 30.79960 | 35994 ft | 440 kts | 355° |
| 2026-04-27 12:02 | 36.83414 | 30.79747 | 35984 ft | 440 kts | 355° |
| 2026-04-27 12:02 | 36.89537 | 30.79541 | 35986 ft | 440 kts | 356° |
| 2026-04-27 12:03 | 36.95655 | 30.79396 | 35995 ft | 440 kts | 357° |
| 2026-04-27 12:03 | 37.01784 | 30.79497 | 35984 ft | 441 kts | 358° |
| 2026-04-27 12:04 | 37.07917 | 30.79648 | 36002 ft | 441 kts | 358° |
| 2026-04-27 12:04 | 37.14043 | 30.79743 | 36020 ft | 441 kts | 358° |
| 2026-04-27 12:05 | 37.20180 | 30.79810 | 36027 ft | 441 kts | 358° |
| 2026-04-27 12:05 | 37.26316 | 30.79882 | 36044 ft | 441 kts | 358° |
| 2026-04-27 12:06 | 37.32449 | 30.79964 | 36040 ft | 440 kts | 358° |
| 2026-04-27 12:06 | 37.38581 | 30.80044 | 36050 ft | 441 kts | 358° |
| 2026-04-27 12:07 | 37.44716 | 30.80126 | 36059 ft | 441 kts | 358° |
| 2026-04-27 12:07 | 37.50853 | 30.80210 | 36065 ft | 441 kts | 358° |
| 2026-04-27 12:08 | 37.56991 | 30.80288 | 36072 ft | 441 kts | 358° |
| 2026-04-27 12:08 | 37.63127 | 30.80365 | 36079 ft | 441 kts | 358° |
| 2026-04-27 12:09 | 37.69269 | 30.80450 | 36091 ft | 441 kts | 358° |
| 2026-04-27 12:09 | 37.75406 | 30.80530 | 36096 ft | 441 kts | 358° |
| 2026-04-27 12:10 | 37.81542 | 30.80607 | 36099 ft | 441 kts | 358° |
| 2026-04-27 12:10 | 37.87656 | 30.80686 | 36118 ft | 442 kts | 358° |
| 2026-04-27 12:11 | 37.93803 | 30.80767 | 36121 ft | 442 kts | 358° |
| 2026-04-27 12:11 | 37.99938 | 30.80851 | 36126 ft | 441 kts | 358° |
| 2026-04-27 12:12 | 38.06082 | 30.80937 | 36130 ft | 441 kts | 358° |
| 2026-04-27 12:12 | 38.12214 | 30.81001 | 36129 ft | 440 kts | 356° |
| 2026-04-27 12:13 | 38.18278 | 30.80139 | 36127 ft | 438 kts | 351° |
| 2026-04-27 12:13 | 38.24328 | 30.79142 | 36133 ft | 439 kts | 351° |
| 2026-04-27 12:14 | 38.30384 | 30.78135 | 36133 ft | 439 kts | 351° |
| 2026-04-27 12:14 | 38.36441 | 30.77143 | 36134 ft | 439 kts | 351° |
| 2026-04-27 12:15 | 38.42504 | 30.76154 | 36131 ft | 439 kts | 351° |
| 2026-04-27 12:15 | 38.48563 | 30.75140 | 36137 ft | 439 kts | 351° |
| 2026-04-27 12:16 | 38.54619 | 30.74127 | 36135 ft | 439 kts | 351° |
| 2026-04-27 12:16 | 38.60683 | 30.73114 | 36136 ft | 439 kts | 351° |
| 2026-04-27 12:17 | 38.66744 | 30.72114 | 36138 ft | 439 kts | 351° |
| 2026-04-27 12:17 | 38.72806 | 30.71105 | 36139 ft | 439 kts | 351° |
| 2026-04-27 12:18 | 38.78863 | 30.70091 | 36139 ft | 439 kts | 351° |
| 2026-04-27 12:18 | 38.84880 | 30.68779 | 36143 ft | 437 kts | 341° |
| 2026-04-27 12:19 | 38.90419 | 30.65643 | 36140 ft | 435 kts | 332° |
| 2026-04-27 12:19 | 38.95812 | 30.62121 | 36128 ft | 435 kts | 332° |
| 2026-04-27 12:20 | 39.01222 | 30.58600 | 36145 ft | 436 kts | 332° |
| 2026-04-27 12:20 | 39.06599 | 30.55095 | 36137 ft | 436 kts | 332° |
| 2026-04-27 12:21 | 39.12020 | 30.51552 | 36134 ft | 437 kts | 332° |
| 2026-04-27 12:21 | 39.17439 | 30.48007 | 36153 ft | 437 kts | 332° |
| 2026-04-27 12:22 | 39.22857 | 30.44446 | 36147 ft | 437 kts | 332° |
| 2026-04-27 12:22 | 39.28274 | 30.40886 | 36159 ft | 437 kts | 332° |
| 2026-04-27 12:23 | 39.33700 | 30.37320 | 36157 ft | 437 kts | 332° |
| 2026-04-27 12:23 | 39.39121 | 30.33743 | 36167 ft | 437 kts | 331° |
| 2026-04-27 12:24 | 39.44543 | 30.30158 | 36170 ft | 438 kts | 331° |
| 2026-04-27 12:24 | 39.49968 | 30.26571 | 36174 ft | 438 kts | 332° |
| 2026-04-27 12:25 | 39.55541 | 30.23358 | 36183 ft | 439 kts | 336° |
| 2026-04-27 12:25 | 39.61231 | 30.20477 | 36190 ft | 439 kts | 337° |
| 2026-04-27 12:26 | 39.66921 | 30.17571 | 36180 ft | 439 kts | 336° |
| 2026-04-27 12:26 | 39.72573 | 30.14559 | 36187 ft | 439 kts | 335° |
| 2026-04-27 12:27 | 39.78210 | 30.11501 | 36189 ft | 439 kts | 335° |
| 2026-04-27 12:27 | 39.83854 | 30.08450 | 36196 ft | 439 kts | 335° |
| 2026-04-27 12:28 | 39.89500 | 30.05409 | 36203 ft | 439 kts | 335° |
| 2026-04-27 12:28 | 39.95114 | 30.02385 | 36204 ft | 440 kts | 335° |
| 2026-04-27 12:29 | 40.00774 | 29.99341 | 36204 ft | 440 kts | 335° |
| 2026-04-27 12:29 | 40.06425 | 29.96288 | 36207 ft | 440 kts | 335° |
| 2026-04-27 12:30 | 40.12073 | 29.93220 | 36215 ft | 440 kts | 335° |
| 2026-04-27 12:30 | 40.17726 | 29.90151 | 36216 ft | 440 kts | 335° |
| 2026-04-27 12:31 | 40.23391 | 29.87076 | 36217 ft | 440 kts | 335° |
| 2026-04-27 12:31 | 40.29047 | 29.83999 | 36218 ft | 440 kts | 335° |
| 2026-04-27 12:32 | 40.34700 | 29.80912 | 36222 ft | 440 kts | 335° |
| 2026-04-27 12:32 | 40.40351 | 29.77817 | 36222 ft | 440 kts | 335° |
| 2026-04-27 12:33 | 40.45999 | 29.74719 | 36228 ft | 440 kts | 335° |
| 2026-04-27 12:33 | 40.50692 | 29.72145 | 36234 ft | 440 kts | 335° |
| 2026-04-27 12:34 | 40.56323 | 29.69055 | 36242 ft | 439 kts | 335° |
| 2026-04-27 12:34 | 40.61968 | 29.65951 | 36257 ft | 439 kts | 334° |
| 2026-04-27 12:35 | 40.67364 | 29.62308 | 36254 ft | 434 kts | 321° |
| 2026-04-27 12:35 | 40.72075 | 29.57377 | 36260 ft | 432 kts | 319° |
| 2026-04-27 12:36 | 40.76812 | 29.52403 | 36265 ft | 433 kts | 319° |
| 2026-04-27 12:36 | 40.81489 | 29.47481 | 36267 ft | 432 kts | 319° |
| 2026-04-27 12:37 | 40.86183 | 29.42514 | 36266 ft | 432 kts | 319° |
| 2026-04-27 12:37 | 40.90877 | 29.37547 | 36264 ft | 432 kts | 319° |
| 2026-04-27 12:38 | 40.95563 | 29.32578 | 36264 ft | 432 kts | 319° |
| 2026-04-27 12:38 | 41.00247 | 29.27587 | 36262 ft | 432 kts | 319° |
| 2026-04-27 12:39 | 41.04932 | 29.22593 | 36268 ft | 432 kts | 319° |
| 2026-04-27 12:39 | 41.09619 | 29.17589 | 36272 ft | 432 kts | 319° |
| 2026-04-27 12:40 | 41.13828 | 29.12006 | 36278 ft | 427 kts | 303° |
| 2026-04-27 12:40 | 41.17122 | 29.05458 | 36280 ft | 426 kts | 302° |
| 2026-04-27 12:41 | 41.20411 | 28.98909 | 36282 ft | 426 kts | 302° |
| 2026-04-27 12:41 | 41.23672 | 28.92393 | 36280 ft | 426 kts | 302° |
| 2026-04-27 12:42 | 41.26955 | 28.85813 | 36281 ft | 427 kts | 302° |
| 2026-04-27 12:42 | 41.30232 | 28.79228 | 36291 ft | 427 kts | 302° |
| 2026-04-27 12:43 | 41.33501 | 28.72634 | 36294 ft | 427 kts | 302° |
| 2026-04-27 12:43 | 41.36766 | 28.66026 | 36299 ft | 427 kts | 302° |
| 2026-04-27 12:44 | 41.40032 | 28.59423 | 36297 ft | 427 kts | 302° |
| 2026-04-27 12:44 | 41.43293 | 28.52814 | 36298 ft | 427 kts | 301° |
| 2026-04-27 12:45 | 41.46542 | 28.46199 | 36300 ft | 427 kts | 301° |
| 2026-04-27 12:45 | 41.49960 | 28.39725 | 36293 ft | 428 kts | 310° |
| 2026-04-27 12:46 | 41.54183 | 28.34108 | 36296 ft | 429 kts | 313° |
| 2026-04-27 12:46 | 41.58446 | 28.28520 | 36299 ft | 429 kts | 313° |
| 2026-04-27 12:47 | 41.62687 | 28.22921 | 36300 ft | 428 kts | 313° |